sensor_id;sensor_type;location;lat;lon;timestamp;P1;durP1;ratioP1;P2;durP2;ratioP2
49730;SDS011;35622;52.008;5.426;2023-06-04T00:01:40;2.55;;;0.80;;
49730;SDS011;35622;52.008;5.426;2023-06-04T00:04:06;1.60;;;1.00;;
49730;SDS011;35622;52.008;5.426;2023-06-04T00:06:31;3.90;;;1.35;;
49730;SDS011;35622;52.008;5.426;2023-06-04T00:08:57;3.45;;;1.20;;
49730;SDS011;35622;52.008;5.426;2023-06-04T00:11:22;1.95;;;1.00;;
49730;SDS011;35622;52.008;5.426;2023-06-04T00:13:48;2.08;;;1.05;;
49730;SDS011;35622;52.008;5.426;2023-06-04T00:16:13;2.28;;;1.10;;
49730;SDS011;35622;52.008;5.426;2023-06-04T00:18:39;1.92;;;1.00;;
49730;SDS011;35622;52.008;5.426;2023-06-04T00:21:04;2.72;;;1.20;;
49730;SDS011;35622;52.008;5.426;2023-06-04T00:23:30;5.32;;;1.30;;
49730;SDS011;35622;52.008;5.426;2023-06-04T00:25:55;4.28;;;1.42;;
49730;SDS011;35622;52.008;5.426;2023-06-04T00:28:21;1.83;;;1.00;;
49730;SDS011;35622;52.008;5.426;2023-06-04T00:30:47;2.75;;;1.10;;
49730;SDS011;35622;52.008;5.426;2023-06-04T00:33:12;3.08;;;1.30;;
49730;SDS011;35622;52.008;5.426;2023-06-04T00:35:38;2.20;;;1.25;;
49730;SDS011;35622;52.008;5.426;2023-06-04T00:38:03;3.95;;;1.15;;
49730;SDS011;35622;52.008;5.426;2023-06-04T00:40:29;1.55;;;1.10;;
49730;SDS011;35622;52.008;5.426;2023-06-04T00:42:54;2.17;;;1.00;;
49730;SDS011;35622;52.008;5.426;2023-06-04T00:45:20;3.90;;;1.55;;
49730;SDS011;35622;52.008;5.426;2023-06-04T00:47:46;3.25;;;1.20;;
49730;SDS011;35622;52.008;5.426;2023-06-04T00:50:12;4.28;;;1.27;;
49730;SDS011;35622;52.008;5.426;2023-06-04T00:52:38;1.80;;;1.08;;
49730;SDS011;35622;52.008;5.426;2023-06-04T00:55:04;2.63;;;1.00;;
49730;SDS011;35622;52.008;5.426;2023-06-04T00:57:30;2.38;;;1.38;;
49730;SDS011;35622;52.008;5.426;2023-06-04T00:59:56;1.92;;;1.00;;
49730;SDS011;35622;52.008;5.426;2023-06-04T01:02:21;2.33;;;1.25;;
49730;SDS011;35622;52.008;5.426;2023-06-04T01:04:53;3.13;;;1.20;;
49730;SDS011;35622;52.008;5.426;2023-06-04T01:07:28;3.45;;;1.20;;
49730;SDS011;35622;52.008;5.426;2023-06-04T01:09:55;2.28;;;1.10;;
49730;SDS011;35622;52.008;5.426;2023-06-04T01:12:21;2.85;;;1.20;;
49730;SDS011;35622;52.008;5.426;2023-06-04T01:14:47;1.35;;;1.13;;
49730;SDS011;35622;52.008;5.426;2023-06-04T01:17:31;2.60;;;1.33;;
49730;SDS011;35622;52.008;5.426;2023-06-04T01:23:19;1.55;;;1.10;;
49730;SDS011;35622;52.008;5.426;2023-06-04T01:25:46;3.03;;;1.30;;
49730;SDS011;35622;52.008;5.426;2023-06-04T01:28:14;2.00;;;1.20;;
49730;SDS011;35622;52.008;5.426;2023-06-04T01:30:43;3.22;;;1.17;;
49730;SDS011;35622;52.008;5.426;2023-06-04T01:33:15;2.83;;;1.17;;
49730;SDS011;35622;52.008;5.426;2023-06-04T01:35:44;2.50;;;1.20;;
49730;SDS011;35622;52.008;5.426;2023-06-04T01:38:10;1.77;;;1.13;;
49730;SDS011;35622;52.008;5.426;2023-06-04T01:40:36;1.38;;;1.02;;
49730;SDS011;35622;52.008;5.426;2023-06-04T01:43:02;1.77;;;1.20;;
49730;SDS011;35622;52.008;5.426;2023-06-04T01:45:28;2.47;;;1.10;;
49730;SDS011;35622;52.008;5.426;2023-06-04T01:47:54;2.97;;;1.20;;
49730;SDS011;35622;52.008;5.426;2023-06-04T01:50:20;1.88;;;1.27;;
49730;SDS011;35622;52.008;5.426;2023-06-04T01:52:46;2.30;;;1.40;;
49730;SDS011;35622;52.008;5.426;2023-06-04T01:55:12;2.15;;;1.13;;
49730;SDS011;35622;52.008;5.426;2023-06-04T01:57:39;2.40;;;1.10;;
49730;SDS011;35622;52.008;5.426;2023-06-04T02:00:06;1.90;;;1.02;;
49730;SDS011;35622;52.008;5.426;2023-06-04T02:02:34;2.83;;;1.15;;
49730;SDS011;35622;52.008;5.426;2023-06-04T02:05:06;2.47;;;1.38;;
49730;SDS011;35622;52.008;5.426;2023-06-04T02:07:36;1.98;;;1.13;;
49730;SDS011;35622;52.008;5.426;2023-06-04T02:10:07;4.55;;;1.40;;
49730;SDS011;35622;52.008;5.426;2023-06-04T02:12:37;2.75;;;1.27;;
49730;SDS011;35622;52.008;5.426;2023-06-04T02:15:04;2.03;;;1.30;;
49730;SDS011;35622;52.008;5.426;2023-06-04T02:17:31;3.45;;;1.38;;
49730;SDS011;35622;52.008;5.426;2023-06-04T02:19:57;2.30;;;1.30;;
49730;SDS011;35622;52.008;5.426;2023-06-04T02:22:23;2.13;;;1.30;;
49730;SDS011;35622;52.008;5.426;2023-06-04T02:24:50;3.10;;;1.65;;
49730;SDS011;35622;52.008;5.426;2023-06-04T02:27:15;4.03;;;1.40;;
49730;SDS011;35622;52.008;5.426;2023-06-04T02:29:41;3.33;;;1.40;;
49730;SDS011;35622;52.008;5.426;2023-06-04T02:32:07;1.52;;;1.25;;
49730;SDS011;35622;52.008;5.426;2023-06-04T02:34:33;3.33;;;1.30;;
49730;SDS011;35622;52.008;5.426;2023-06-04T02:36:59;2.97;;;1.48;;
49730;SDS011;35622;52.008;5.426;2023-06-04T02:39:25;2.33;;;1.42;;
49730;SDS011;35622;52.008;5.426;2023-06-04T02:41:51;1.90;;;1.20;;
49730;SDS011;35622;52.008;5.426;2023-06-04T02:44:16;1.30;;;1.15;;
49730;SDS011;35622;52.008;5.426;2023-06-04T02:46:43;1.77;;;1.05;;
49730;SDS011;35622;52.008;5.426;2023-06-04T02:49:10;1.80;;;1.20;;
49730;SDS011;35622;52.008;5.426;2023-06-04T02:51:45;6.45;;;1.25;;
49730;SDS011;35622;52.008;5.426;2023-06-04T02:54:10;2.33;;;1.38;;
49730;SDS011;35622;52.008;5.426;2023-06-04T02:56:36;2.92;;;1.42;;
49730;SDS011;35622;52.008;5.426;2023-06-04T02:59:02;3.72;;;1.50;;
49730;SDS011;35622;52.008;5.426;2023-06-04T03:01:29;1.98;;;1.30;;
49730;SDS011;35622;52.008;5.426;2023-06-04T03:03:55;3.20;;;1.20;;
49730;SDS011;35622;52.008;5.426;2023-06-04T03:06:22;2.33;;;1.30;;
49730;SDS011;35622;52.008;5.426;2023-06-04T03:08:48;2.05;;;1.20;;
49730;SDS011;35622;52.008;5.426;2023-06-04T03:11:15;2.13;;;1.30;;
49730;SDS011;35622;52.008;5.426;2023-06-04T03:13:41;2.35;;;1.45;;
49730;SDS011;35622;52.008;5.426;2023-06-04T03:16:07;3.20;;;1.42;;
49730;SDS011;35622;52.008;5.426;2023-06-04T03:18:35;2.50;;;1.30;;
49730;SDS011;35622;52.008;5.426;2023-06-04T03:21:07;4.82;;;1.60;;
49730;SDS011;35622;52.008;5.426;2023-06-04T03:23:34;2.20;;;1.27;;
49730;SDS011;35622;52.008;5.426;2023-06-04T03:26:03;1.73;;;1.20;;
49730;SDS011;35622;52.008;5.426;2023-06-04T03:28:30;2.03;;;1.40;;
49730;SDS011;35622;52.008;5.426;2023-06-04T03:30:56;2.53;;;1.48;;
49730;SDS011;35622;52.008;5.426;2023-06-04T03:33:22;2.85;;;1.30;;
49730;SDS011;35622;52.008;5.426;2023-06-04T03:35:49;1.83;;;1.45;;
49730;SDS011;35622;52.008;5.426;2023-06-04T03:38:15;2.50;;;1.38;;
49730;SDS011;35622;52.008;5.426;2023-06-04T03:40:40;1.80;;;1.35;;
49730;SDS011;35622;52.008;5.426;2023-06-04T03:43:07;2.42;;;1.35;;
49730;SDS011;35622;52.008;5.426;2023-06-04T03:45:32;3.55;;;1.90;;
49730;SDS011;35622;52.008;5.426;2023-06-04T03:47:58;4.10;;;1.33;;
49730;SDS011;35622;52.008;5.426;2023-06-04T03:50:24;3.40;;;1.20;;
49730;SDS011;35622;52.008;5.426;2023-06-04T03:52:50;3.67;;;1.42;;
49730;SDS011;35622;52.008;5.426;2023-06-04T03:55:15;2.90;;;1.50;;
49730;SDS011;35622;52.008;5.426;2023-06-04T03:57:41;3.60;;;1.48;;
49730;SDS011;35622;52.008;5.426;2023-06-04T04:00:09;2.20;;;1.60;;
49730;SDS011;35622;52.008;5.426;2023-06-04T04:02:37;3.50;;;1.60;;
49730;SDS011;35622;52.008;5.426;2023-06-04T04:05:03;1.88;;;1.33;;
49730;SDS011;35622;52.008;5.426;2023-06-04T04:07:29;2.60;;;1.65;;
49730;SDS011;35622;52.008;5.426;2023-06-04T04:09:55;1.80;;;1.25;;
49730;SDS011;35622;52.008;5.426;2023-06-04T04:12:20;2.25;;;1.33;;
49730;SDS011;35622;52.008;5.426;2023-06-04T04:14:46;2.00;;;1.30;;
49730;SDS011;35622;52.008;5.426;2023-06-04T04:17:12;2.75;;;1.60;;
49730;SDS011;35622;52.008;5.426;2023-06-04T04:19:41;3.30;;;1.45;;
49730;SDS011;35622;52.008;5.426;2023-06-04T04:22:06;2.17;;;1.35;;
49730;SDS011;35622;52.008;5.426;2023-06-04T04:24:34;3.13;;;1.65;;
49730;SDS011;35622;52.008;5.426;2023-06-04T04:27:02;3.15;;;1.67;;
49730;SDS011;35622;52.008;5.426;2023-06-04T04:29:29;2.08;;;1.60;;
49730;SDS011;35622;52.008;5.426;2023-06-04T04:31:57;4.05;;;1.70;;
49730;SDS011;35622;52.008;5.426;2023-06-04T04:34:25;3.95;;;1.50;;
49730;SDS011;35622;52.008;5.426;2023-06-04T04:36:52;2.33;;;1.35;;
49730;SDS011;35622;52.008;5.426;2023-06-04T04:39:26;2.92;;;1.77;;
49730;SDS011;35622;52.008;5.426;2023-06-04T04:41:53;1.92;;;1.50;;
49730;SDS011;35622;52.008;5.426;2023-06-04T04:44:19;3.53;;;1.45;;
49730;SDS011;35622;52.008;5.426;2023-06-04T04:46:45;4.40;;;1.67;;
49730;SDS011;35622;52.008;5.426;2023-06-04T04:49:11;1.73;;;1.42;;
49730;SDS011;35622;52.008;5.426;2023-06-04T04:51:36;2.10;;;1.50;;
49730;SDS011;35622;52.008;5.426;2023-06-04T04:54:02;5.85;;;1.50;;
49730;SDS011;35622;52.008;5.426;2023-06-04T04:56:27;2.90;;;1.33;;
49730;SDS011;35622;52.008;5.426;2023-06-04T04:58:54;3.63;;;1.70;;
49730;SDS011;35622;52.008;5.426;2023-06-04T05:01:20;4.43;;;1.80;;
49730;SDS011;35622;52.008;5.426;2023-06-04T05:03:46;2.65;;;1.50;;
49730;SDS011;35622;52.008;5.426;2023-06-04T05:06:13;4.13;;;2.10;;
49730;SDS011;35622;52.008;5.426;2023-06-04T05:08:38;3.85;;;1.80;;
49730;SDS011;35622;52.008;5.426;2023-06-04T05:11:04;5.38;;;1.90;;
49730;SDS011;35622;52.008;5.426;2023-06-04T05:13:30;5.63;;;2.00;;
49730;SDS011;35622;52.008;5.426;2023-06-04T05:15:55;4.00;;;1.92;;
49730;SDS011;35622;52.008;5.426;2023-06-04T05:18:21;6.40;;;2.10;;
49730;SDS011;35622;52.008;5.426;2023-06-04T05:20:54;4.60;;;2.10;;
49730;SDS011;35622;52.008;5.426;2023-06-04T05:23:20;4.57;;;1.90;;
49730;SDS011;35622;52.008;5.426;2023-06-04T05:25:45;3.20;;;2.10;;
49730;SDS011;35622;52.008;5.426;2023-06-04T05:28:14;4.78;;;2.50;;
49730;SDS011;35622;52.008;5.426;2023-06-04T05:30:39;4.10;;;2.20;;
49730;SDS011;35622;52.008;5.426;2023-06-04T05:33:06;5.40;;;2.03;;
49730;SDS011;35622;52.008;5.426;2023-06-04T05:35:34;2.85;;;1.90;;
49730;SDS011;35622;52.008;5.426;2023-06-04T05:37:59;5.57;;;2.40;;
49730;SDS011;35622;52.008;5.426;2023-06-04T05:40:25;4.00;;;2.63;;
49730;SDS011;35622;52.008;5.426;2023-06-04T05:42:51;4.35;;;2.40;;
49730;SDS011;35622;52.008;5.426;2023-06-04T05:45:16;3.70;;;2.30;;
49730;SDS011;35622;52.008;5.426;2023-06-04T05:47:42;3.35;;;2.30;;
49730;SDS011;35622;52.008;5.426;2023-06-04T05:50:08;5.25;;;2.85;;
49730;SDS011;35622;52.008;5.426;2023-06-04T05:52:34;6.50;;;2.42;;
49730;SDS011;35622;52.008;5.426;2023-06-04T05:55:02;3.88;;;2.30;;
49730;SDS011;35622;52.008;5.426;2023-06-04T05:57:27;3.55;;;2.10;;
49730;SDS011;35622;52.008;5.426;2023-06-04T05:59:53;6.60;;;2.47;;
49730;SDS011;35622;52.008;5.426;2023-06-04T06:02:18;3.83;;;2.30;;
49730;SDS011;35622;52.008;5.426;2023-06-04T06:04:44;6.75;;;2.67;;
49730;SDS011;35622;52.008;5.426;2023-06-04T06:07:09;2.85;;;1.95;;
49730;SDS011;35622;52.008;5.426;2023-06-04T06:09:35;4.30;;;2.20;;
49730;SDS011;35622;52.008;5.426;2023-06-04T06:12:01;4.72;;;2.20;;
49730;SDS011;35622;52.008;5.426;2023-06-04T06:14:26;5.40;;;2.00;;
49730;SDS011;35622;52.008;5.426;2023-06-04T06:16:52;7.10;;;2.10;;
49730;SDS011;35622;52.008;5.426;2023-06-04T06:19:18;5.68;;;2.35;;
49730;SDS011;35622;52.008;5.426;2023-06-04T06:21:43;5.05;;;2.05;;
49730;SDS011;35622;52.008;5.426;2023-06-04T06:24:09;4.57;;;1.88;;
49730;SDS011;35622;52.008;5.426;2023-06-04T06:26:35;3.30;;;1.83;;
49730;SDS011;35622;52.008;5.426;2023-06-04T06:29:01;4.53;;;1.90;;
49730;SDS011;35622;52.008;5.426;2023-06-04T06:31:26;6.45;;;1.90;;
49730;SDS011;35622;52.008;5.426;2023-06-04T06:33:52;3.03;;;1.80;;
49730;SDS011;35622;52.008;5.426;2023-06-04T06:36:17;6.07;;;1.90;;
49730;SDS011;35622;52.008;5.426;2023-06-04T06:38:43;5.90;;;2.65;;
49730;SDS011;35622;52.008;5.426;2023-06-04T06:41:10;4.57;;;2.35;;
49730;SDS011;35622;52.008;5.426;2023-06-04T06:43:36;4.63;;;1.85;;
49730;SDS011;35622;52.008;5.426;2023-06-04T06:46:02;7.05;;;2.28;;
49730;SDS011;35622;52.008;5.426;2023-06-04T06:48:27;4.00;;;1.80;;
49730;SDS011;35622;52.008;5.426;2023-06-04T06:50:53;3.83;;;1.65;;
49730;SDS011;35622;52.008;5.426;2023-06-04T06:53:19;5.40;;;1.73;;
49730;SDS011;35622;52.008;5.426;2023-06-04T06:55:45;4.13;;;1.77;;
49730;SDS011;35622;52.008;5.426;2023-06-04T06:58:11;3.35;;;1.65;;
49730;SDS011;35622;52.008;5.426;2023-06-04T07:00:36;2.95;;;1.70;;
49730;SDS011;35622;52.008;5.426;2023-06-04T07:03:02;5.18;;;1.63;;
49730;SDS011;35622;52.008;5.426;2023-06-04T07:05:28;4.15;;;1.70;;
49730;SDS011;35622;52.008;5.426;2023-06-04T07:07:54;3.67;;;1.70;;
49730;SDS011;35622;52.008;5.426;2023-06-04T07:10:22;4.72;;;1.40;;
49730;SDS011;35622;52.008;5.426;2023-06-04T07:12:47;3.10;;;1.67;;
49730;SDS011;35622;52.008;5.426;2023-06-04T07:15:13;2.50;;;1.70;;
49730;SDS011;35622;52.008;5.426;2023-06-04T07:17:38;4.68;;;2.10;;
49730;SDS011;35622;52.008;5.426;2023-06-04T07:20:04;5.63;;;1.70;;
49730;SDS011;35622;52.008;5.426;2023-06-04T07:22:34;2.90;;;1.48;;
49730;SDS011;35622;52.008;5.426;2023-06-04T07:25:00;3.95;;;1.80;;
49730;SDS011;35622;52.008;5.426;2023-06-04T07:27:26;3.47;;;1.85;;
49730;SDS011;35622;52.008;5.426;2023-06-04T07:29:52;2.63;;;1.48;;
49730;SDS011;35622;52.008;5.426;2023-06-04T07:32:17;4.50;;;1.70;;
49730;SDS011;35622;52.008;5.426;2023-06-04T07:34:43;3.97;;;1.50;;
49730;SDS011;35622;52.008;5.426;2023-06-04T07:37:08;3.72;;;1.58;;
49730;SDS011;35622;52.008;5.426;2023-06-04T07:39:34;3.78;;;1.40;;
49730;SDS011;35622;52.008;5.426;2023-06-04T07:42:00;3.63;;;1.60;;
49730;SDS011;35622;52.008;5.426;2023-06-04T07:44:26;3.97;;;1.85;;
49730;SDS011;35622;52.008;5.426;2023-06-04T07:46:52;3.67;;;1.90;;
49730;SDS011;35622;52.008;5.426;2023-06-04T07:49:17;3.58;;;1.65;;
49730;SDS011;35622;52.008;5.426;2023-06-04T07:51:43;4.32;;;1.80;;
49730;SDS011;35622;52.008;5.426;2023-06-04T07:54:08;3.67;;;1.40;;
49730;SDS011;35622;52.008;5.426;2023-06-04T07:56:35;3.85;;;1.70;;
49730;SDS011;35622;52.008;5.426;2023-06-04T07:59:00;3.10;;;1.85;;
49730;SDS011;35622;52.008;5.426;2023-06-04T08:01:26;4.32;;;1.60;;
49730;SDS011;35622;52.008;5.426;2023-06-04T08:03:52;4.35;;;1.70;;
49730;SDS011;35622;52.008;5.426;2023-06-04T08:06:18;3.05;;;1.58;;
49730;SDS011;35622;52.008;5.426;2023-06-04T08:08:44;3.88;;;1.60;;
49730;SDS011;35622;52.008;5.426;2023-06-04T08:11:11;2.35;;;1.50;;
49730;SDS011;35622;52.008;5.426;2023-06-04T08:13:37;4.68;;;1.45;;
49730;SDS011;35622;52.008;5.426;2023-06-04T08:16:02;4.72;;;1.42;;
49730;SDS011;35622;52.008;5.426;2023-06-04T08:18:28;4.15;;;1.50;;
49730;SDS011;35622;52.008;5.426;2023-06-04T08:20:54;3.50;;;1.50;;
49730;SDS011;35622;52.008;5.426;2023-06-04T08:23:19;3.65;;;1.55;;
49730;SDS011;35622;52.008;5.426;2023-06-04T08:25:45;2.17;;;1.38;;
49730;SDS011;35622;52.008;5.426;2023-06-04T08:28:12;4.13;;;1.65;;
49730;SDS011;35622;52.008;5.426;2023-06-04T08:30:38;3.53;;;1.40;;
49730;SDS011;35622;52.008;5.426;2023-06-04T08:33:04;3.75;;;1.70;;
49730;SDS011;35622;52.008;5.426;2023-06-04T08:35:30;3.47;;;1.50;;
49730;SDS011;35622;52.008;5.426;2023-06-04T08:37:55;3.45;;;1.45;;
49730;SDS011;35622;52.008;5.426;2023-06-04T08:40:21;3.30;;;1.50;;
49730;SDS011;35622;52.008;5.426;2023-06-04T08:42:47;2.42;;;1.42;;
49730;SDS011;35622;52.008;5.426;2023-06-04T08:45:14;3.95;;;1.60;;
49730;SDS011;35622;52.008;5.426;2023-06-04T08:47:42;3.10;;;1.30;;
49730;SDS011;35622;52.008;5.426;2023-06-04T08:50:10;4.80;;;1.20;;
49730;SDS011;35622;52.008;5.426;2023-06-04T08:52:37;2.67;;;1.00;;
49730;SDS011;35622;52.008;5.426;2023-06-04T08:55:04;2.72;;;1.30;;
49730;SDS011;35622;52.008;5.426;2023-06-04T08:57:31;2.05;;;1.10;;
49730;SDS011;35622;52.008;5.426;2023-06-04T08:59:56;2.88;;;1.20;;
49730;SDS011;35622;52.008;5.426;2023-06-04T09:02:22;2.13;;;1.20;;
49730;SDS011;35622;52.008;5.426;2023-06-04T09:04:48;3.65;;;1.40;;
49730;SDS011;35622;52.008;5.426;2023-06-04T09:07:14;2.33;;;1.35;;
49730;SDS011;35622;52.008;5.426;2023-06-04T09:09:42;3.50;;;1.45;;
49730;SDS011;35622;52.008;5.426;2023-06-04T09:12:11;2.38;;;1.20;;
49730;SDS011;35622;52.008;5.426;2023-06-04T09:14:47;1.90;;;1.00;;
49730;SDS011;35622;52.008;5.426;2023-06-04T09:17:13;2.58;;;1.20;;
49730;SDS011;35622;52.008;5.426;2023-06-04T09:19:39;2.45;;;1.10;;
49730;SDS011;35622;52.008;5.426;2023-06-04T09:22:05;2.55;;;1.20;;
49730;SDS011;35622;52.008;5.426;2023-06-04T09:24:38;2.53;;;1.17;;
49730;SDS011;35622;52.008;5.426;2023-06-04T09:27:11;4.22;;;1.10;;
49730;SDS011;35622;52.008;5.426;2023-06-04T09:29:48;1.80;;;1.10;;
49730;SDS011;35622;52.008;5.426;2023-06-04T09:32:20;2.70;;;1.00;;
49730;SDS011;35622;52.008;5.426;2023-06-04T09:34:47;2.80;;;1.08;;
49730;SDS011;35622;52.008;5.426;2023-06-04T09:37:15;1.58;;;0.88;;
49730;SDS011;35622;52.008;5.426;2023-06-04T09:39:52;1.63;;;0.80;;
49730;SDS011;35622;52.008;5.426;2023-06-04T09:42:18;1.77;;;0.70;;
49730;SDS011;35622;52.008;5.426;2023-06-04T09:44:44;1.95;;;0.90;;
49730;SDS011;35622;52.008;5.426;2023-06-04T09:47:12;1.50;;;0.80;;
49730;SDS011;35622;52.008;5.426;2023-06-04T09:49:45;4.57;;;1.00;;
49730;SDS011;35622;52.008;5.426;2023-06-04T09:52:12;2.22;;;0.80;;
49730;SDS011;35622;52.008;5.426;2023-06-04T09:54:39;3.60;;;0.80;;
49730;SDS011;35622;52.008;5.426;2023-06-04T09:57:18;1.85;;;0.90;;
49730;SDS011;35622;52.008;5.426;2023-06-04T09:59:44;2.53;;;1.10;;
49730;SDS011;35622;52.008;5.426;2023-06-04T10:02:11;1.30;;;1.20;;
49730;SDS011;35622;52.008;5.426;2023-06-04T10:04:41;1.33;;;0.90;;
49730;SDS011;35622;52.008;5.426;2023-06-04T10:07:11;1.80;;;0.98;;
49730;SDS011;35622;52.008;5.426;2023-06-04T10:09:40;1.90;;;1.00;;
49730;SDS011;35622;52.008;5.426;2023-06-04T10:12:11;3.13;;;1.00;;
49730;SDS011;35622;52.008;5.426;2023-06-04T10:14:45;2.72;;;1.00;;
49730;SDS011;35622;52.008;5.426;2023-06-04T10:17:16;1.30;;;0.80;;
49730;SDS011;35622;52.008;5.426;2023-06-04T10:19:43;1.80;;;1.00;;
49730;SDS011;35622;52.008;5.426;2023-06-04T10:22:10;5.13;;;1.00;;
49730;SDS011;35622;52.008;5.426;2023-06-04T10:24:36;4.28;;;1.10;;
49730;SDS011;35622;52.008;5.426;2023-06-04T10:27:02;5.43;;;1.10;;
49730;SDS011;35622;52.008;5.426;2023-06-04T10:29:35;1.88;;;1.02;;
49730;SDS011;35622;52.008;5.426;2023-06-04T10:32:01;1.00;;;0.88;;
49730;SDS011;35622;52.008;5.426;2023-06-04T10:34:26;2.40;;;0.90;;
49730;SDS011;35622;52.008;5.426;2023-06-04T10:36:52;2.05;;;1.00;;
49730;SDS011;35622;52.008;5.426;2023-06-04T10:39:31;3.40;;;1.00;;
49730;SDS011;35622;52.008;5.426;2023-06-04T10:42:03;1.83;;;1.00;;
49730;SDS011;35622;52.008;5.426;2023-06-04T10:44:30;1.95;;;1.02;;
49730;SDS011;35622;52.008;5.426;2023-06-04T10:46:57;3.42;;;1.00;;
49730;SDS011;35622;52.008;5.426;2023-06-04T10:49:30;3.33;;;1.05;;
49730;SDS011;35622;52.008;5.426;2023-06-04T10:51:56;3.60;;;1.00;;
49730;SDS011;35622;52.008;5.426;2023-06-04T10:54:28;1.27;;;0.90;;
49730;SDS011;35622;52.008;5.426;2023-06-04T10:56:53;1.83;;;1.25;;
49730;SDS011;35622;52.008;5.426;2023-06-04T10:59:19;2.75;;;1.10;;
49730;SDS011;35622;52.008;5.426;2023-06-04T11:01:46;2.60;;;1.00;;
49730;SDS011;35622;52.008;5.426;2023-06-04T11:04:21;1.02;;;0.85;;
49730;SDS011;35622;52.008;5.426;2023-06-04T11:06:59;2.75;;;1.00;;
49730;SDS011;35622;52.008;5.426;2023-06-04T11:09:29;2.38;;;1.20;;
49730;SDS011;35622;52.008;5.426;2023-06-04T11:11:59;1.65;;;0.90;;
49730;SDS011;35622;52.008;5.426;2023-06-04T11:14:25;2.75;;;1.20;;
49730;SDS011;35622;52.008;5.426;2023-06-04T11:16:50;3.55;;;1.05;;
49730;SDS011;35622;52.008;5.426;2023-06-04T11:19:16;2.60;;;1.20;;
49730;SDS011;35622;52.008;5.426;2023-06-04T11:21:43;2.28;;;1.20;;
49730;SDS011;35622;52.008;5.426;2023-06-04T11:24:11;2.22;;;1.00;;
49730;SDS011;35622;52.008;5.426;2023-06-04T11:26:37;2.38;;;1.10;;
49730;SDS011;35622;52.008;5.426;2023-06-04T11:29:07;1.85;;;1.23;;
49730;SDS011;35622;52.008;5.426;2023-06-04T11:31:48;2.22;;;1.02;;
49730;SDS011;35622;52.008;5.426;2023-06-04T11:34:23;2.38;;;1.15;;
49730;SDS011;35622;52.008;5.426;2023-06-04T11:36:53;1.90;;;1.02;;
49730;SDS011;35622;52.008;5.426;2023-06-04T11:39:19;1.95;;;1.33;;
49730;SDS011;35622;52.008;5.426;2023-06-04T11:41:45;1.20;;;1.10;;
49730;SDS011;35622;52.008;5.426;2023-06-04T11:44:11;1.42;;;1.30;;
49730;SDS011;35622;52.008;5.426;2023-06-04T11:46:41;2.30;;;1.10;;
49730;SDS011;35622;52.008;5.426;2023-06-04T11:49:14;1.40;;;1.23;;
49730;SDS011;35622;52.008;5.426;2023-06-04T11:51:50;2.75;;;1.30;;
49730;SDS011;35622;52.008;5.426;2023-06-04T11:54:17;2.03;;;1.10;;
49730;SDS011;35622;52.008;5.426;2023-06-04T11:56:45;1.48;;;1.08;;
49730;SDS011;35622;52.008;5.426;2023-06-04T11:59:13;2.45;;;1.17;;
49730;SDS011;35622;52.008;5.426;2023-06-04T12:01:40;1.83;;;1.17;;
49730;SDS011;35622;52.008;5.426;2023-06-04T12:04:17;3.05;;;1.25;;
49730;SDS011;35622;52.008;5.426;2023-06-04T12:06:56;1.73;;;1.35;;
49730;SDS011;35622;52.008;5.426;2023-06-04T12:09:23;2.40;;;1.10;;
49730;SDS011;35622;52.008;5.426;2023-06-04T12:11:57;1.48;;;1.33;;
49730;SDS011;35622;52.008;5.426;2023-06-04T12:14:26;2.22;;;1.25;;
49730;SDS011;35622;52.008;5.426;2023-06-04T12:16:55;1.75;;;1.00;;
49730;SDS011;35622;52.008;5.426;2023-06-04T12:19:21;2.55;;;1.02;;
49730;SDS011;35622;52.008;5.426;2023-06-04T12:21:47;2.42;;;1.10;;
49730;SDS011;35622;52.008;5.426;2023-06-04T12:24:27;1.70;;;1.20;;
49730;SDS011;35622;52.008;5.426;2023-06-04T12:27:01;1.67;;;1.08;;
49730;SDS011;35622;52.008;5.426;2023-06-04T12:29:27;1.38;;;1.00;;
49730;SDS011;35622;52.008;5.426;2023-06-04T12:32:00;2.08;;;1.10;;
49730;SDS011;35622;52.008;5.426;2023-06-04T12:34:32;1.60;;;1.13;;
49730;SDS011;35622;52.008;5.426;2023-06-04T12:37:00;1.48;;;1.10;;
49730;SDS011;35622;52.008;5.426;2023-06-04T12:39:25;2.67;;;1.13;;
49730;SDS011;35622;52.008;5.426;2023-06-04T12:41:51;1.67;;;1.10;;
49730;SDS011;35622;52.008;5.426;2023-06-04T12:44:17;2.13;;;1.13;;
49730;SDS011;35622;52.008;5.426;2023-06-04T12:46:42;2.35;;;1.10;;
49730;SDS011;35622;52.008;5.426;2023-06-04T12:49:08;2.88;;;1.30;;
49730;SDS011;35622;52.008;5.426;2023-06-04T12:51:34;2.38;;;0.95;;
49730;SDS011;35622;52.008;5.426;2023-06-04T12:54:00;2.60;;;1.10;;
49730;SDS011;35622;52.008;5.426;2023-06-04T12:56:25;1.73;;;1.10;;
49730;SDS011;35622;52.008;5.426;2023-06-04T12:58:51;2.63;;;1.30;;
49730;SDS011;35622;52.008;5.426;2023-06-04T13:01:17;2.47;;;1.23;;
49730;SDS011;35622;52.008;5.426;2023-06-04T13:03:42;3.55;;;1.25;;
49730;SDS011;35622;52.008;5.426;2023-06-04T13:06:08;3.28;;;1.05;;
49730;SDS011;35622;52.008;5.426;2023-06-04T13:08:33;1.90;;;1.17;;
49730;SDS011;35622;52.008;5.426;2023-06-04T13:11:00;2.65;;;1.02;;
49730;SDS011;35622;52.008;5.426;2023-06-04T13:13:26;2.47;;;1.20;;
49730;SDS011;35622;52.008;5.426;2023-06-04T13:15:52;2.13;;;1.17;;
49730;SDS011;35622;52.008;5.426;2023-06-04T13:18:18;1.90;;;1.00;;
49730;SDS011;35622;52.008;5.426;2023-06-04T13:20:43;1.98;;;1.00;;
49730;SDS011;35622;52.008;5.426;2023-06-04T13:23:09;1.58;;;1.10;;
49730;SDS011;35622;52.008;5.426;2023-06-04T13:25:37;2.58;;;1.17;;
49730;SDS011;35622;52.008;5.426;2023-06-04T13:28:03;3.40;;;1.27;;
49730;SDS011;35622;52.008;5.426;2023-06-04T13:30:29;2.63;;;1.20;;
49730;SDS011;35622;52.008;5.426;2023-06-04T13:32:55;1.67;;;1.20;;
49730;SDS011;35622;52.008;5.426;2023-06-04T13:35:23;2.38;;;1.13;;
49730;SDS011;35622;52.008;5.426;2023-06-04T13:37:49;2.72;;;1.38;;
49730;SDS011;35622;52.008;5.426;2023-06-04T13:40:14;2.40;;;1.45;;
49730;SDS011;35622;52.008;5.426;2023-06-04T13:42:40;1.88;;;1.10;;
49730;SDS011;35622;52.008;5.426;2023-06-04T13:45:07;3.65;;;1.23;;
49730;SDS011;35622;52.008;5.426;2023-06-04T13:47:33;2.15;;;1.10;;
49730;SDS011;35622;52.008;5.426;2023-06-04T13:49:59;3.25;;;1.25;;
49730;SDS011;35622;52.008;5.426;2023-06-04T13:52:25;2.75;;;1.17;;
49730;SDS011;35622;52.008;5.426;2023-06-04T13:54:53;2.08;;;1.27;;
49730;SDS011;35622;52.008;5.426;2023-06-04T13:57:19;3.95;;;1.20;;
49730;SDS011;35622;52.008;5.426;2023-06-04T13:59:44;3.47;;;1.40;;
49730;SDS011;35622;52.008;5.426;2023-06-04T14:02:10;2.38;;;1.27;;
49730;SDS011;35622;52.008;5.426;2023-06-04T14:04:35;2.35;;;1.40;;
49730;SDS011;35622;52.008;5.426;2023-06-04T14:07:01;2.28;;;0.98;;
49730;SDS011;35622;52.008;5.426;2023-06-04T14:09:26;4.93;;;1.48;;
49730;SDS011;35622;52.008;5.426;2023-06-04T14:11:52;2.83;;;1.38;;
49730;SDS011;35622;52.008;5.426;2023-06-04T14:14:19;3.45;;;1.50;;
49730;SDS011;35622;52.008;5.426;2023-06-04T14:16:46;4.68;;;1.60;;
49730;SDS011;35622;52.008;5.426;2023-06-04T14:19:12;4.10;;;1.48;;
49730;SDS011;35622;52.008;5.426;2023-06-04T14:21:38;2.60;;;1.23;;
49730;SDS011;35622;52.008;5.426;2023-06-04T14:24:04;3.25;;;1.40;;
49730;SDS011;35622;52.008;5.426;2023-06-04T14:26:30;2.95;;;1.50;;
49730;SDS011;35622;52.008;5.426;2023-06-04T14:28:55;3.85;;;1.50;;
49730;SDS011;35622;52.008;5.426;2023-06-04T14:31:21;2.42;;;1.20;;
49730;SDS011;35622;52.008;5.426;2023-06-04T14:33:47;3.65;;;1.30;;
49730;SDS011;35622;52.008;5.426;2023-06-04T14:36:13;3.85;;;1.30;;
49730;SDS011;35622;52.008;5.426;2023-06-04T14:38:38;4.03;;;1.30;;
49730;SDS011;35622;52.008;5.426;2023-06-04T14:41:04;3.42;;;1.58;;
49730;SDS011;35622;52.008;5.426;2023-06-04T14:43:30;2.47;;;1.20;;
49730;SDS011;35622;52.008;5.426;2023-06-04T14:45:55;6.40;;;1.83;;
49730;SDS011;35622;52.008;5.426;2023-06-04T14:48:21;3.67;;;1.38;;
49730;SDS011;35622;52.008;5.426;2023-06-04T14:50:47;3.53;;;1.10;;